Time;durP1;ratioP1;P1;durP2;ratioP2;P2;SDS_P1;SDS_P2;PMS_P1;PMS_P2;Temp;Humidity;BMP_temperature;BMP_pressure;BME280_temperature;BME280_humidity;BME280_pressure;Samples;Min_cycle;Max_cycle;Signal;HPM_P1;HPM_P2
2023/06/08 00:00:33;;;;;;;14.75;6.13;;;;;;;;;;5052485;28;20057;-74
2023/06/08 00:03:04;;;;;;;13.27;6.50;;;;;;;;;;5052111;28;20056;-75
2023/06/08 00:05:31;;;;;;;13.02;6.68;;;;;;;;;;5053611;28;20045;-76
2023/06/08 00:07:57;;;;;;;9.38;5.95;;;;;;;;;;5053080;28;20033;-75
2023/06/08 00:10:23;;;;;;;12.70;6.05;;;;;;;;;;5035467;28;20053;-74
2023/06/08 00:12:49;;;;;;;12.65;6.15;;;;;;;;;;5035796;28;20079;-75
2023/06/08 00:15:17;;;;;;;12.73;6.32;;;;;;;;;;5053006;28;20048;-76
2023/06/08 00:17:44;;;;;;;10.30;6.55;;;;;;;;;;5053441;28;20056;-76
2023/06/08 00:20:10;;;;;;;11.27;6.60;;;;;;;;;;5053524;28;20052;-75
2023/06/08 00:22:36;;;;;;;11.95;7.15;;;;;;;;;;5036047;28;20127;-73
2023/06/08 00:25:03;;;;;;;12.98;6.40;;;;;;;;;;5053380;28;20091;-76
2023/06/08 00:27:30;;;;;;;10.02;6.57;;;;;;;;;;5053695;28;20037;-75
2023/06/08 00:29:57;;;;;;;8.73;6.28;;;;;;;;;;5053693;28;20126;-76
2023/06/08 00:32:23;;;;;;;13.75;6.25;;;;;;;;;;5035143;28;20448;-75
2023/06/08 00:34:49;;;;;;;9.27;5.93;;;;;;;;;;5037660;28;20140;-77
2023/06/08 00:37:15;;;;;;;9.90;5.72;;;;;;;;;;5069015;28;20036;-76
2023/06/08 00:39:41;;;;;;;9.63;6.10;;;;;;;;;;5052856;28;20053;-76
2023/06/08 00:42:08;;;;;;;12.45;6.50;;;;;;;;;;5052541;28;20049;-76
2023/06/08 00:44:35;;;;;;;14.88;6.90;;;;;;;;;;5052829;28;20106;-76
2023/06/08 00:47:00;;;;;;;11.88;6.63;;;;;;;;;;5052501;28;20049;-75
2023/06/08 00:49:27;;;;;;;12.70;7.72;;;;;;;;;;5052713;28;20059;-75
2023/06/08 00:51:53;;;;;;;14.85;8.30;;;;;;;;;;5051535;28;20041;-74
2023/06/08 00:54:19;;;;;;;14.20;8.10;;;;;;;;;;5052869;28;20053;-75
2023/06/08 00:56:48;;;;;;;12.98;7.60;;;;;;;;;;5037684;28;20110;-75
2023/06/08 00:59:15;;;;;;;9.02;6.60;;;;;;;;;;5039035;28;20591;-75
2023/06/08 01:01:41;;;;;;;9.27;7.50;;;;;;;;;;5055531;28;20041;-76
2023/06/08 01:04:11;;;;;;;10.63;7.15;;;;;;;;;;5053688;28;20072;-75
2023/06/08 01:06:45;;;;;;;12.70;7.72;;;;;;;;;;5056894;28;20219;-75
2023/06/08 01:09:43;;;;;;;14.57;7.43;;;;;;;;;;5056464;28;20097;-75
2023/06/08 01:12:11;;;;;;;10.30;6.68;;;;;;;;;;4996594;28;20041;-75
2023/06/08 01:14:46;;;;;;;9.55;6.65;;;;;;;;;;5060847;28;20112;-76
2023/06/08 01:17:14;;;;;;;18.45;7.05;;;;;;;;;;5062432;28;20053;-75
2023/06/08 01:19:43;;;;;;;7.90;7.15;;;;;;;;;;5056741;28;20060;-75
2023/06/08 01:22:14;;;;;;;10.45;7.28;;;;;;;;;;5035646;28;20037;-76
2023/06/08 01:24:49;;;;;;;13.40;8.07;;;;;;;;;;5051538;28;20048;-75
2023/06/08 01:27:16;;;;;;;10.32;7.25;;;;;;;;;;5052386;28;20040;-75
2023/06/08 01:29:44;;;;;;;10.95;6.70;;;;;;;;;;5052134;28;20049;-76
2023/06/08 01:32:10;;;;;;;11.32;6.65;;;;;;;;;;5050517;28;20079;-76
2023/06/08 01:34:36;;;;;;;19.00;7.20;;;;;;;;;;5052323;28;20052;-76
2023/06/08 01:37:12;;;;;;;10.80;6.45;;;;;;;;;;5050408;28;20037;-75
2023/06/08 01:40:10;;;;;;;7.90;6.50;;;;;;;;;;5034137;28;20524;-76
2023/06/08 01:42:36;;;;;;;14.13;6.80;;;;;;;;;;5007767;28;20071;-76
2023/06/08 01:45:21;;;;;;;12.38;7.00;;;;;;;;;;5051640;28;20532;-76
2023/06/08 01:47:51;;;;;;;8.18;7.13;;;;;;;;;;5051696;28;20094;-76
2023/06/08 01:50:17;;;;;;;15.88;7.28;;;;;;;;;;5051793;28;21022;-75
2023/06/08 01:52:43;;;;;;;8.07;7.28;;;;;;;;;;5051478;28;20056;-76
2023/06/08 01:55:13;;;;;;;10.65;7.05;;;;;;;;;;5017282;28;20047;-76
2023/06/08 01:57:39;;;;;;;15.60;7.43;;;;;;;;;;5050170;28;20406;-76
2023/06/08 02:00:06;;;;;;;15.80;7.55;;;;;;;;;;5033419;28;20376;-76
2023/06/08 02:02:38;;;;;;;12.35;7.85;;;;;;;;;;5051398;28;20044;-76
2023/06/08 02:05:07;;;;;;;13.38;8.07;;;;;;;;;;5033223;28;20622;-76
2023/06/08 02:07:33;;;;;;;8.27;7.47;;;;;;;;;;5049831;28;20051;-76
2023/06/08 02:09:59;;;;;;;12.73;7.57;;;;;;;;;;5032991;28;20057;-76
2023/06/08 02:12:25;;;;;;;11.82;7.70;;;;;;;;;;5049717;28;20064;-76
2023/06/08 02:14:51;;;;;;;15.65;6.93;;;;;;;;;;5033125;28;20048;-76
2023/06/08 02:17:18;;;;;;;8.75;7.00;;;;;;;;;;5050750;28;20056;-77
2023/06/08 02:19:45;;;;;;;15.23;8.00;;;;;;;;;;5050752;28;20071;-76
2023/06/08 02:22:11;;;;;;;11.73;7.63;;;;;;;;;;5049783;28;20417;-75
2023/06/08 02:24:38;;;;;;;11.05;7.97;;;;;;;;;;5066167;28;20085;-76
2023/06/08 02:27:05;;;;;;;10.43;7.57;;;;;;;;;;5051570;28;20052;-77
2023/06/08 02:29:31;;;;;;;12.68;6.60;;;;;;;;;;5051814;28;20052;-75
2023/06/08 02:31:57;;;;;;;10.30;7.13;;;;;;;;;;5049615;28;20044;-76
2023/06/08 02:34:24;;;;;;;10.68;6.80;;;;;;;;;;5050726;28;20399;-74
2023/06/08 02:36:51;;;;;;;7.63;6.90;;;;;;;;;;5032912;28;20500;-76
2023/06/08 02:42:03;;;;;;;12.57;6.95;;;;;;;;;;5050958;28;20041;-76
2023/06/08 02:44:30;;;;;;;10.20;6.70;;;;;;;;;;5049510;28;20056;-75
2023/06/08 02:46:55;;;;;;;9.07;7.18;;;;;;;;;;5033391;28;20044;-75
2023/06/08 02:49:21;;;;;;;8.77;7.05;;;;;;;;;;5033062;28;20481;-76
2023/06/08 02:51:47;;;;;;;11.88;7.22;;;;;;;;;;5032679;28;20041;-76
2023/06/08 02:54:14;;;;;;;12.43;8.00;;;;;;;;;;5050274;28;20036;-76
2023/06/08 02:56:40;;;;;;;16.40;7.65;;;;;;;;;;5049382;28;20524;-75
2023/06/08 02:59:07;;;;;;;12.20;7.35;;;;;;;;;;5032289;28;20118;-75
2023/06/08 03:01:33;;;;;;;14.18;7.50;;;;;;;;;;5049174;28;20077;-77
2023/06/08 03:04:04;;;;;;;8.63;7.18;;;;;;;;;;5032291;28;20065;-77
2023/06/08 03:06:36;;;;;;;8.32;7.35;;;;;;;;;;5032562;28;20052;-76
2023/06/08 03:09:05;;;;;;;12.75;7.20;;;;;;;;;;5048678;28;20045;-76
2023/06/08 03:11:34;;;;;;;11.63;7.93;;;;;;;;;;5032364;28;20433;-77
2023/06/08 03:14:03;;;;;;;12.55;7.00;;;;;;;;;;5048566;28;20091;-76
2023/06/08 03:16:31;;;;;;;11.63;7.80;;;;;;;;;;5032089;28;20064;-76
2023/06/08 03:18:58;;;;;;;13.45;7.22;;;;;;;;;;5031872;28;20048;-76
2023/06/08 03:21:28;;;;;;;8.73;7.20;;;;;;;;;;5048967;28;20049;-76
2023/06/08 03:23:56;;;;;;;14.85;8.00;;;;;;;;;;5048747;28;20045;-76
2023/06/08 03:26:23;;;;;;;13.57;8.00;;;;;;;;;;5048781;28;20091;-75
2023/06/08 03:28:49;;;;;;;9.73;7.90;;;;;;;;;;5037995;28;20512;-76
2023/06/08 03:31:16;;;;;;;11.13;7.22;;;;;;;;;;5055213;28;20517;-76
2023/06/08 03:33:45;;;;;;;;;;;;;;;;;;5022700;28;20051;-77
2023/06/08 03:36:12;;;;;;;12.25;7.07;;;;;;;;;;5022015;28;19912;-77
2023/06/08 03:38:41;;;;;;;11.30;7.28;;;;;;;;;;5055315;28;20187;-77
2023/06/08 03:41:10;;;;;;;11.85;8.30;;;;;;;;;;5038382;28;20516;-77
2023/06/08 03:43:36;;;;;;;11.32;8.02;;;;;;;;;;5038706;28;20039;-76
2023/06/08 03:46:02;;;;;;;19.73;7.60;;;;;;;;;;5038468;28;20049;-77
2023/06/08 03:48:29;;;;;;;8.82;7.47;;;;;;;;;;5055333;28;20072;-76
2023/06/08 03:50:57;;;;;;;9.40;6.15;;;;;;;;;;5038635;28;20045;-75
2023/06/08 03:53:25;;;;;;;11.43;6.90;;;;;;;;;;5054969;28;20174;-77
2023/06/08 03:55:51;;;;;;;15.40;7.63;;;;;;;;;;5056400;28;20524;-77
2023/06/08 03:58:18;;;;;;;13.70;7.47;;;;;;;;;;5021598;28;20444;-76
2023/06/08 04:00:45;;;;;;;8.20;7.43;;;;;;;;;;5038450;28;20539;-75
2023/06/08 04:03:13;;;;;;;11.88;7.88;;;;;;;;;;5054883;28;20041;-76
2023/06/08 04:05:40;;;;;;;14.55;8.02;;;;;;;;;;5021974;28;20095;-75
2023/06/08 04:08:06;;;;;;;13.63;8.00;;;;;;;;;;5054859;28;20041;-77
2023/06/08 04:13:19;;;;;;;8.65;7.60;;;;;;;;;;5022204;28;20072;-77
2023/06/08 04:15:45;;;;;;;9.00;7.53;;;;;;;;;;5053352;28;20127;-75
2023/06/08 04:18:11;;;;;;;9.90;7.85;;;;;;;;;;5044766;28;20080;-74
2023/06/08 04:20:38;;;;;;;9.88;7.72;;;;;;;;;;5056353;28;20525;-76
2023/06/08 04:23:04;;;;;;;13.15;8.27;;;;;;;;;;5039669;28;20045;-77
2023/06/08 04:25:30;;;;;;;12.15;8.25;;;;;;;;;;5049631;28;20056;-76
2023/06/08 04:27:56;;;;;;;8.88;8.07;;;;;;;;;;5051983;28;20037;-76
2023/06/08 04:30:22;;;;;;;11.20;8.23;;;;;;;;;;5061534;28;20037;-77
2023/06/08 04:32:49;;;;;;;11.38;7.53;;;;;;;;;;5055051;28;20524;-76
2023/06/08 04:35:16;;;;;;;10.98;7.90;;;;;;;;;;5054701;28;20068;-78
2023/06/08 04:37:43;;;;;;;9.77;7.88;;;;;;;;;;5038095;28;20099;-76
2023/06/08 04:40:12;;;;;;;15.98;8.20;;;;;;;;;;5053187;28;20516;-76
2023/06/08 04:42:59;;;;;;;9.52;7.82;;;;;;;;;;5052621;28;20040;-76
2023/06/08 04:45:26;;;;;;;12.20;8.15;;;;;;;;;;5051554;28;20049;-77
2023/06/08 04:47:53;;;;;;;7.78;7.05;;;;;;;;;;5034716;28;20041;-76
2023/06/08 04:50:19;;;;;;;10.30;7.68;;;;;;;;;;5051401;28;20045;-76
2023/06/08 04:52:46;;;;;;;8.50;7.60;;;;;;;;;;5034531;28;20041;-78
2023/06/08 04:55:16;;;;;;;8.90;7.03;;;;;;;;;;5051363;28;20087;-78
2023/06/08 04:57:42;;;;;;;7.70;7.00;;;;;;;;;;5052785;28;20037;-76
2023/06/08 05:00:09;;;;;;;10.98;6.75;;;;;;;;;;5051235;28;20052;-77
2023/06/08 05:02:36;;;;;;;8.18;6.53;;;;;;;;;;5035102;28;20045;-76
2023/06/08 05:05:03;;;;;;;6.75;5.90;;;;;;;;;;5052725;28;20041;-77
2023/06/08 05:07:30;;;;;;;7.72;6.15;;;;;;;;;;5052692;28;20417;-77
2023/06/08 05:09:59;;;;;;;7.43;6.65;;;;;;;;;;5052321;28;20080;-77
2023/06/08 05:12:25;;;;;;;11.98;6.25;;;;;;;;;;5052148;28;20274;-77
2023/06/08 05:14:51;;;;;;;5.95;5.45;;;;;;;;;;5051013;28;20495;-77
2023/06/08 05:17:18;;;;;;;9.60;5.95;;;;;;;;;;5051982;28;20060;-76
2023/06/08 05:19:44;;;;;;;6.50;5.53;;;;;;;;;;5052095;28;20084;-77
2023/06/08 05:22:10;;;;;;;10.23;6.10;;;;;;;;;;5051855;28;20106;-77
2023/06/08 05:24:36;;;;;;;9.18;5.78;;;;;;;;;;5052185;28;20079;-77
2023/06/08 05:27:02;;;;;;;7.55;5.05;;;;;;;;;;5052192;28;20045;-77
2023/06/08 05:29:28;;;;;;;6.28;5.60;;;;;;;;;;5051794;28;20069;-77
2023/06/08 05:31:54;;;;;;;7.18;5.50;;;;;;;;;;5051818;28;20044;-77
2023/06/08 05:34:21;;;;;;;6.60;5.57;;;;;;;;;;5050337;28;20549;-77
2023/06/08 05:36:46;;;;;;;6.97;6.30;;;;;;;;;;5051823;28;20041;-78
2023/06/08 05:39:13;;;;;;;6.10;5.50;;;;;;;;;;5050151;28;20194;-77
2023/06/08 05:41:39;;;;;;;11.95;5.40;;;;;;;;;;5051877;28;20128;-77
2023/06/08 05:44:05;;;;;;;6.30;5.18;;;;;;;;;;5051360;28;20047;-77
2023/06/08 05:46:31;;;;;;;7.40;5.03;;;;;;;;;;5051739;28;20485;-77
2023/06/08 05:48:57;;;;;;;6.32;4.90;;;;;;;;;;5051910;28;20041;-77
2023/06/08 05:51:23;;;;;;;4.72;4.32;;;;;;;;;;5050920;28;20049;-77
2023/06/08 05:53:50;;;;;;;5.97;4.80;;;;;;;;;;5033674;28;20491;-77
2023/06/08 05:56:16;;;;;;;4.20;3.90;;;;;;;;;;5033270;28;20094;-78
2023/06/08 05:58:42;;;;;;;6.45;4.15;;;;;;;;;;5049869;28;20490;-77
2023/06/08 06:01:09;;;;;;;5.95;3.97;;;;;;;;;;5051142;28;20408;-77
2023/06/08 06:03:36;;;;;;;4.75;4.20;;;;;;;;;;5052012;28;20094;-78
2023/06/08 06:06:02;;;;;;;5.07;4.63;;;;;;;;;;5050191;28;20060;-76
2023/06/08 06:08:27;;;;;;;5.32;4.93;;;;;;;;;;5052575;28;20052;-77
2023/06/08 06:10:53;;;;;;;9.70;4.93;;;;;;;;;;5051226;28;20475;-77
2023/06/08 06:13:21;;;;;;;6.05;4.80;;;;;;;;;;5050710;28;20074;-77
2023/06/08 06:15:47;;;;;;;5.57;4.38;;;;;;;;;;5033043;28;20053;-77
2023/06/08 06:18:13;;;;;;;7.85;4.80;;;;;;;;;;5032840;28;20048;-77
2023/06/08 06:20:40;;;;;;;5.72;4.90;;;;;;;;;;5033013;28;20049;-77
2023/06/08 06:23:06;;;;;;;4.65;4.25;;;;;;;;;;5054318;28;20039;-76
2023/06/08 06:25:35;;;;;;;;;;;;;;;;;;5033831;28;20052;-77
2023/06/08 06:28:02;;;;;;;9.57;4.05;;;;;;;;;;5050746;28;19923;-77
2023/06/08 06:30:28;;;;;;;7.40;4.03;;;;;;;;;;5049414;28;20037;-77
2023/06/08 06:32:54;;;;;;;6.25;3.67;;;;;;;;;;5050683;28;20053;-77
2023/06/08 06:35:20;;;;;;;6.00;4.35;;;;;;;;;;5050416;28;20513;-77
2023/06/08 06:37:46;;;;;;;6.70;4.07;;;;;;;;;;5049473;28;20099;-77
2023/06/08 06:40:13;;;;;;;6.63;4.25;;;;;;;;;;5050245;28;20053;-77
2023/06/08 06:42:39;;;;;;;7.32;4.38;;;;;;;;;;5032702;28;20053;-77
2023/06/08 06:45:27;;;;;;;6.40;4.15;;;;;;;;;;5049091;28;20080;-78
2023/06/08 06:47:53;;;;;;;4.97;4.47;;;;;;;;;;5032638;28;20123;-77
2023/06/08 06:50:19;;;;;;;5.72;3.90;;;;;;;;;;5015972;28;20047;-77
2023/06/08 06:52:45;;;;;;;6.13;3.60;;;;;;;;;;5050279;28;20053;-77
2023/06/08 06:55:11;;;;;;;4.40;4.00;;;;;;;;;;5050033;28;20115;-78
2023/06/08 06:57:37;;;;;;;4.90;3.97;;;;;;;;;;5050444;28;20128;-77
2023/06/08 07:00:08;;;;;;;8.25;4.20;;;;;;;;;;5048881;28;20091;-77
2023/06/08 07:02:37;;;;;;;10.13;4.80;;;;;;;;;;5049605;28;20033;-77
2023/06/08 07:05:04;;;;;;;6.40;4.57;;;;;;;;;;5050080;28;20053;-77
2023/06/08 07:07:31;;;;;;;8.45;4.72;;;;;;;;;;5050121;28;20037;-77
2023/06/08 07:09:57;;;;;;;7.03;4.50;;;;;;;;;;5048915;28;20044;-77
2023/06/08 07:12:23;;;;;;;5.88;4.63;;;;;;;;;;5049950;28;20103;-77
2023/06/08 07:14:49;;;;;;;4.95;4.53;;;;;;;;;;5049997;28;20521;-77
2023/06/08 07:17:15;;;;;;;6.00;4.50;;;;;;;;;;5031835;28;20075;-77
2023/06/08 07:19:41;;;;;;;6.25;4.55;;;;;;;;;;5032035;28;20592;-77
2023/06/08 07:22:07;;;;;;;6.75;4.65;;;;;;;;;;5048702;28;20136;-77
2023/06/08 07:24:33;;;;;;;4.72;4.22;;;;;;;;;;5031778;28;20049;-76
2023/06/08 07:26:59;;;;;;;8.98;4.68;;;;;;;;;;5049819;28;20060;-77
2023/06/08 07:29:25;;;;;;;4.35;3.97;;;;;;;;;;5048405;28;20102;-78
2023/06/08 07:31:51;;;;;;;4.40;4.00;;;;;;;;;;5031977;28;20037;-78
2023/06/08 07:34:18;;;;;;;4.88;4.47;;;;;;;;;;5032030;28;20068;-78
2023/06/08 07:36:45;;;;;;;7.47;4.72;;;;;;;;;;5049920;28;20059;-77
2023/06/08 07:39:11;;;;;;;7.53;4.40;;;;;;;;;;5049582;28;20184;-77
2023/06/08 07:41:38;;;;;;;12.38;4.00;;;;;;;;;;5048667;28;20132;-78
2023/06/08 07:44:04;;;;;;;7.43;4.10;;;;;;;;;;5032003;28;20544;-77
2023/06/08 07:46:31;;;;;;;15.70;4.63;;;;;;;;;;5049824;28;20036;-78
2023/06/08 07:48:57;;;;;;;6.93;4.15;;;;;;;;;;5049614;28;20045;-77
2023/06/08 07:51:23;;;;;;;5.65;4.70;;;;;;;;;;5049718;28;20048;-77
2023/06/08 07:53:49;;;;;;;8.50;4.28;;;;;;;;;;5052432;28;20124;-75
2023/06/08 07:56:15;;;;;;;9.70;4.28;;;;;;;;;;5046639;28;20037;-77
2023/06/08 07:58:42;;;;;;;7.07;4.07;;;;;;;;;;5032022;28;20037;-77
2023/06/08 08:01:08;;;;;;;4.35;3.97;;;;;;;;;;5032080;28;20056;-78
2023/06/08 08:03:37;;;;;;;4.22;3.90;;;;;;;;;;5049560;28;20123;-78
2023/06/08 08:06:04;;;;;;;6.22;4.43;;;;;;;;;;5048403;28;20402;-78
2023/06/08 08:08:30;;;;;;;5.25;4.03;;;;;;;;;;5049908;28;20456;-77
2023/06/08 08:10:56;;;;;;;6.22;3.95;;;;;;;;;;5051035;28;20049;-77
2023/06/08 08:13:22;;;;;;;9.55;4.43;;;;;;;;;;5051260;28;20029;-78
2023/06/08 08:15:49;;;;;;;9.70;4.13;;;;;;;;;;5054375;28;20044;-79
2023/06/08 08:18:15;;;;;;;5.13;4.45;;;;;;;;;;5053836;28;20459;-78
2023/06/08 08:20:41;;;;;;;6.22;3.97;;;;;;;;;;5054045;28;20045;-77
2023/06/08 08:23:07;;;;;;;6.32;3.80;;;;;;;;;;5052658;28;20067;-77
2023/06/08 08:25:34;;;;;;;7.78;4.13;;;;;;;;;;5052940;28;20052;-77
2023/06/08 08:28:00;;;;;;;4.78;4.15;;;;;;;;;;5053308;28;20056;-78
2023/06/08 08:30:27;;;;;;;11.73;4.25;;;;;;;;;;5051746;28;20041;-77
2023/06/08 08:32:53;;;;;;;10.95;4.13;;;;;;;;;;5052889;28;20056;-77
2023/06/08 08:35:19;;;;;;;4.55;3.65;;;;;;;;;;5052965;28;20029;-76
2023/06/08 08:37:45;;;;;;;6.00;3.95;;;;;;;;;;5052988;28;20452;-77
2023/06/08 08:40:13;;;;;;;4.10;3.80;;;;;;;;;;5034831;28;20053;-77
2023/06/08 08:42:44;;;;;;;5.50;3.97;;;;;;;;;;5051774;28;20048;-77
2023/06/08 08:45:13;;;;;;;5.63;4.03;;;;;;;;;;5051658;28;20049;-77
2023/06/08 08:47:39;;;;;;;4.13;3.80;;;;;;;;;;5052609;28;20099;-77
2023/06/08 08:50:06;;;;;;;4.50;3.90;;;;;;;;;;5034809;28;20048;-77
2023/06/08 08:52:33;;;;;;;4.75;4.30;;;;;;;;;;5052655;28;20041;-77
2023/06/08 08:55:00;;;;;;;6.07;4.50;;;;;;;;;;5052356;28;20086;-78
2023/06/08 08:57:29;;;;;;;6.03;4.85;;;;;;;;;;5052417;28;20045;-78
2023/06/08 08:59:55;;;;;;;4.53;4.10;;;;;;;;;;5052382;28;20084;-77
2023/06/08 09:02:21;;;;;;;6.10;4.28;;;;;;;;;;5051068;28;20053;-77
2023/06/08 09:04:47;;;;;;;7.90;4.28;;;;;;;;;;5052446;28;20167;-77
2023/06/08 09:07:17;;;;;;;4.20;3.85;;;;;;;;;;5052374;28;20048;-77
2023/06/08 09:10:03;;;;;;;5.97;4.78;;;;;;;;;;5052489;28;20131;-78
2023/06/08 09:12:39;;;;;;;9.20;4.28;;;;;;;;;;5052593;28;20044;-77
2023/06/08 09:15:05;;;;;;;5.55;4.18;;;;;;;;;;5053113;28;20099;-77
2023/06/08 09:17:37;;;;;;;8.32;4.35;;;;;;;;;;5035149;28;20087;-78
2023/06/08 09:20:08;;;;;;;7.38;4.07;;;;;;;;;;5058621;28;20053;-77
2023/06/08 09:22:36;;;;;;;6.85;4.85;;;;;;;;;;5062212;28;20033;-77
2023/06/08 09:25:03;;;;;;;7.88;3.95;;;;;;;;;;5039030;28;20045;-77
2023/06/08 09:27:30;;;;;;;6.18;4.07;;;;;;;;;;5034119;28;20505;-77
2023/06/08 09:30:02;;;;;;;4.65;4.25;;;;;;;;;;5051976;28;20052;-77
2023/06/08 09:32:36;;;;;;;4.53;4.05;;;;;;;;;;5051636;28;20041;-77
2023/06/08 09:35:03;;;;;;;8.95;4.57;;;;;;;;;;5050165;28;20044;-77
2023/06/08 09:37:36;;;;;;;8.05;4.18;;;;;;;;;;5033790;28;20048;-77
2023/06/08 09:40:12;;;;;;;4.72;4.15;;;;;;;;;;5017543;28;20057;-77
2023/06/08 09:42:44;;;;;;;5.80;4.50;;;;;;;;;;5058255;28;20037;-77
2023/06/08 09:45:14;;;;;;;7.25;4.53;;;;;;;;;;5074202;28;20056;-77
2023/06/08 09:47:40;;;;;;;;;;;;;;;;;;5052265;28;20072;-77
2023/06/08 09:50:07;;;;;;;4.55;4.15;;;;;;;;;;5051102;28;19944;-77
2023/06/08 09:52:33;;;;;;;4.60;4.20;;;;;;;;;;5051495;28;20064;-77
2023/06/08 09:54:59;;;;;;;8.18;4.57;;;;;;;;;;5051185;28;20045;-75
2023/06/08 09:57:26;;;;;;;10.68;4.60;;;;;;;;;;5051285;28;20040;-77
2023/06/08 10:00:14;;;;;;;8.15;4.05;;;;;;;;;;5033258;28;20057;-77
2023/06/08 10:02:46;;;;;;;5.88;4.28;;;;;;;;;;5051173;28;20567;-77
2023/06/08 10:05:13;;;;;;;4.90;3.47;;;;;;;;;;5051025;28;20540;-77
2023/06/08 10:07:41;;;;;;;4.90;4.28;;;;;;;;;;5050894;28;20611;-77
2023/06/08 10:10:13;;;;;;;7.82;4.22;;;;;;;;;;5033286;28;20032;-77
2023/06/08 10:12:39;;;;;;;9.15;5.30;;;;;;;;;;5032886;28;20131;-77
2023/06/08 10:15:05;;;;;;;4.40;4.00;;;;;;;;;;5050649;28;20074;-77
2023/06/08 10:17:32;;;;;;;4.82;4.30;;;;;;;;;;5049413;28;20051;-77
2023/06/08 10:19:59;;;;;;;8.52;3.78;;;;;;;;;;5049233;28;20060;-77
2023/06/08 10:22:25;;;;;;;8.57;4.20;;;;;;;;;;5049382;28;20049;-77
2023/06/08 10:24:51;;;;;;;4.13;3.70;;;;;;;;;;5032661;28;20045;-77
2023/06/08 10:27:23;;;;;;;5.10;3.90;;;;;;;;;;5049461;28;20060;-77
2023/06/08 10:29:55;;;;;;;7.53;4.30;;;;;;;;;;5050564;28;20051;-77
2023/06/08 10:32:31;;;;;;;7.40;3.70;;;;;;;;;;5050584;28;20083;-77
2023/06/08 10:35:00;;;;;;;5.05;4.25;;;;;;;;;;5050654;28;20036;-77
2023/06/08 10:37:27;;;;;;;7.40;4.30;;;;;;;;;;5032323;28;20044;-77
2023/06/08 10:39:53;;;;;;;4.53;4.18;;;;;;;;;;5032521;28;20057;-76
2023/06/08 10:42:19;;;;;;;5.45;3.67;;;;;;;;;;5032603;28;20041;-77
2023/06/08 10:45:13;;;;;;;3.97;3.58;;;;;;;;;;5050164;28;20055;-77
2023/06/08 10:47:39;;;;;;;8.18;4.05;;;;;;;;;;5046569;28;20597;-77
2023/06/08 10:50:06;;;;;;;3.83;3.53;;;;;;;;;;5032333;28;20596;-77
2023/06/08 10:52:39;;;;;;;8.23;3.85;;;;;;;;;;5050145;28;20048;-77
2023/06/08 10:55:08;;;;;;;5.47;3.92;;;;;;;;;;5050389;28;20513;-77
2023/06/08 10:57:34;;;;;;;5.75;3.90;;;;;;;;;;5049072;28;20051;-77
2023/06/08 11:00:00;;;;;;;3.80;3.38;;;;;;;;;;5032144;28;20057;-77
2023/06/08 11:02:29;;;;;;;8.57;4.47;;;;;;;;;;5048577;28;20029;-77
2023/06/08 11:04:58;;;;;;;4.93;4.13;;;;;;;;;;5031946;28;20041;-77
2023/06/08 11:07:27;;;;;;;7.53;3.65;;;;;;;;;;5048897;28;20127;-77
2023/06/08 11:09:53;;;;;;;4.70;4.30;;;;;;;;;;5049985;28;20052;-77
2023/06/08 11:12:19;;;;;;;8.30;4.07;;;;;;;;;;5050074;28;20471;-77
2023/06/08 11:14:46;;;;;;;6.47;3.90;;;;;;;;;;5048528;28;20128;-76
2023/06/08 11:17:12;;;;;;;4.05;3.75;;;;;;;;;;5048424;28;20053;-76
2023/06/08 11:19:38;;;;;;;4.95;3.83;;;;;;;;;;5048387;28;20056;-76
2023/06/08 11:22:04;;;;;;;8.70;3.90;;;;;;;;;;5031948;28;20043;-77
2023/06/08 11:24:30;;;;;;;7.82;3.83;;;;;;;;;;5048607;28;20752;-77
2023/06/08 11:26:59;;;;;;;5.25;4.22;;;;;;;;;;5049979;28;20037;-77
2023/06/08 11:29:28;;;;;;;5.60;4.22;;;;;;;;;;5050092;28;20048;-77
2023/06/08 11:31:54;;;;;;;3.20;2.83;;;;;;;;;;5054570;28;20096;-76
2023/06/08 11:34:21;;;;;;;5.25;3.45;;;;;;;;;;5060507;28;20673;-75
2023/06/08 11:36:48;;;;;;;6.72;3.72;;;;;;;;;;5050259;28;20432;-77
2023/06/08 11:39:14;;;;;;;7.00;3.60;;;;;;;;;;5049371;28;20577;-77
2023/06/08 11:41:40;;;;;;;7.45;4.20;;;;;;;;;;5031619;28;20045;-76
2023/06/08 11:44:07;;;;;;;3.95;3.70;;;;;;;;;;5049708;28;20052;-76
2023/06/08 11:46:32;;;;;;;7.88;3.95;;;;;;;;;;5049545;28;20155;-76
2023/06/08 11:49:16;;;;;;;5.82;4.15;;;;;;;;;;5051201;28;20067;-77
2023/06/08 11:51:44;;;;;;;5.63;3.67;;;;;;;;;;5053549;28;20517;-76
2023/06/08 11:54:10;;;;;;;4.35;3.95;;;;;;;;;;5053741;28;20532;-77
2023/06/08 11:56:36;;;;;;;7.72;4.22;;;;;;;;;;5035708;28;20068;-77
2023/06/08 11:59:03;;;;;;;4.25;3.83;;;;;;;;;;5053419;28;20603;-77
2023/06/08 12:01:30;;;;;;;5.03;3.90;;;;;;;;;;5052552;28;20504;-77
2023/06/08 12:03:56;;;;;;;4.07;3.67;;;;;;;;;;5053361;28;20091;-77
2023/06/08 12:06:26;;;;;;;4.63;4.07;;;;;;;;;;5053611;28;20561;-77
2023/06/08 12:08:55;;;;;;;4.50;4.10;;;;;;;;;;5052267;28;20047;-77
2023/06/08 12:11:22;;;;;;;4.25;3.92;;;;;;;;;;5035876;28;20049;-77
2023/06/08 12:13:48;;;;;;;4.20;3.80;;;;;;;;;;5054474;28;20875;-77
2023/06/08 12:16:14;;;;;;;5.40;3.80;;;;;;;;;;5055995;28;20057;-76
2023/06/08 12:18:42;;;;;;;5.85;4.10;;;;;;;;;;5063616;28;20045;-77
2023/06/08 12:21:10;;;;;;;5.32;4.30;;;;;;;;;;5061047;28;20112;-77
2023/06/08 12:23:36;;;;;;;3.67;3.38;;;;;;;;;;5053864;28;20041;-76
2023/06/08 12:26:02;;;;;;;3.90;3.55;;;;;;;;;;5053215;28;20048;-76
2023/06/08 12:28:28;;;;;;;4.70;4.30;;;;;;;;;;5053186;28;20049;-77
2023/06/08 12:30:56;;;;;;;7.70;4.38;;;;;;;;;;5051829;28;20048;-77
2023/06/08 12:33:22;;;;;;;7.70;3.78;;;;;;;;;;5051785;28;20120;-77
2023/06/08 12:35:53;;;;;;;7.05;4.13;;;;;;;;;;5052758;28;20536;-76
2023/06/08 12:38:20;;;;;;;6.50;3.90;;;;;;;;;;5034947;28;20472;-77
2023/06/08 12:40:51;;;;;;;5.57;4.57;;;;;;;;;;5051134;28;20383;-77
2023/06/08 12:43:18;;;;;;;6.78;4.30;;;;;;;;;;5051606;28;20041;-76
2023/06/08 12:45:44;;;;;;;4.65;4.22;;;;;;;;;;5034603;28;20073;-78
2023/06/08 12:48:10;;;;;;;9.23;4.07;;;;;;;;;;5034769;28;20580;-77
2023/06/08 12:50:38;;;;;;;4.78;3.70;;;;;;;;;;5052272;28;20159;-77
2023/06/08 12:53:04;;;;;;;7.88;3.97;;;;;;;;;;5052483;28;20091;-76
2023/06/08 12:55:30;;;;;;;4.25;3.75;;;;;;;;;;5052283;28;20063;-77
2023/06/08 12:57:56;;;;;;;4.30;3.90;;;;;;;;;;5052649;28;20086;-76
2023/06/08 13:00:22;;;;;;;5.97;3.95;;;;;;;;;;5033168;28;20053;-77
2023/06/08 13:02:49;;;;;;;5.72;4.10;;;;;;;;;;5034242;28;20539;-77
2023/06/08 13:05:15;;;;;;;4.28;3.97;;;;;;;;;;5051063;28;20560;-77
2023/06/08 13:07:41;;;;;;;4.20;3.90;;;;;;;;;;5034121;28;20064;-75
2023/06/08 13:10:07;;;;;;;6.03;3.92;;;;;;;;;;5052240;28;20052;-76
2023/06/08 13:12:33;;;;;;;4.38;4.03;;;;;;;;;;5051921;28;20045;-75
2023/06/08 13:14:59;;;;;;;7.57;4.05;;;;;;;;;;5034246;28;20124;-77
2023/06/08 13:17:25;;;;;;;4.53;4.20;;;;;;;;;;5052459;28;20053;-77
2023/06/08 13:19:54;;;;;;;4.50;4.07;;;;;;;;;;5057324;28;20083;-76
2023/06/08 13:22:23;;;;;;;5.10;4.20;;;;;;;;;;5062364;28;20037;-78
2023/06/08 13:24:49;;;;;;;5.63;4.13;;;;;;;;;;5051964;28;20128;-78
2023/06/08 13:27:16;;;;;;;4.78;3.83;;;;;;;;;;5051952;28;20123;-78
2023/06/08 13:29:48;;;;;;;4.40;4.03;;;;;;;;;;5033766;28;20064;-77
2023/06/08 13:32:14;;;;;;;5.45;4.25;;;;;;;;;;5051756;28;20103;-77
2023/06/08 13:34:40;;;;;;;4.43;4.00;;;;;;;;;;5051201;28;20045;-77
2023/06/08 13:37:06;;;;;;;4.68;4.25;;;;;;;;;;5050347;28;20037;-77
2023/06/08 13:39:33;;;;;;;7.15;4.30;;;;;;;;;;5051518;28;20080;-77
2023/06/08 13:42:01;;;;;;;7.53;4.20;;;;;;;;;;5033433;28;20040;-77
2023/06/08 13:44:27;;;;;;;5.15;4.05;;;;;;;;;;5051204;28;20135;-78
2023/06/08 13:46:53;;;;;;;5.80;3.53;;;;;;;;;;5051366;28;20239;-77
2023/06/08 13:49:19;;;;;;;6.35;4.70;;;;;;;;;;5051482;28;20124;-76
2023/06/08 13:51:47;;;;;;;6.72;4.82;;;;;;;;;;5049897;28;20041;-77
2023/06/08 13:54:15;;;;;;;6.85;3.90;;;;;;;;;;5051570;28;20043;-77
2023/06/08 13:56:42;;;;;;;7.32;3.97;;;;;;;;;;5051177;28;20068;-77
2023/06/08 13:59:08;;;;;;;7.00;4.22;;;;;;;;;;5051191;28;20126;-76
2023/06/08 14:01:34;;;;;;;8.75;3.92;;;;;;;;;;5051431;28;20131;-76
2023/06/08 14:04:00;;;;;;;4.70;4.30;;;;;;;;;;5051246;28;20076;-76
2023/06/08 14:06:26;;;;;;;4.72;4.30;;;;;;;;;;5051270;28;20049;-78
2023/06/08 14:08:53;;;;;;;6.03;4.28;;;;;;;;;;5051050;28;20041;-77
2023/06/08 14:11:19;;;;;;;6.40;4.13;;;;;;;;;;5050551;28;20068;-77
2023/06/08 14:13:45;;;;;;;4.78;3.83;;;;;;;;;;5051009;28;20141;-76
2023/06/08 14:16:13;;;;;;;5.63;3.85;;;;;;;;;;5050986;28;20044;-77
2023/06/08 14:18:39;;;;;;;3.55;3.25;;;;;;;;;;5049744;28;20058;-76
2023/06/08 14:21:07;;;;;;;10.65;4.35;;;;;;;;;;5049819;28;20041;-76
2023/06/08 14:23:34;;;;;;;4.80;3.97;;;;;;;;;;5049914;28;20095;-77
2023/06/08 14:26:00;;;;;;;5.20;3.95;;;;;;;;;;5032451;28;20059;-76
2023/06/08 14:28:26;;;;;;;8.18;4.07;;;;;;;;;;5032749;28;20067;-75
2023/06/08 14:30:52;;;;;;;7.18;3.97;;;;;;;;;;5049249;28;20044;-75
2023/06/08 14:33:18;;;;;;;9.85;4.70;;;;;;;;;;5050530;28;20059;-77
2023/06/08 14:35:45;;;;;;;6.90;4.18;;;;;;;;;;5032520;28;20048;-76
2023/06/08 14:38:12;;;;;;;4.30;3.90;;;;;;;;;;5050778;28;20099;-77
2023/06/08 14:40:38;;;;;;;5.20;4.35;;;;;;;;;;5050343;28;20056;-77
2023/06/08 14:43:04;;;;;;;5.32;4.53;;;;;;;;;;5049027;28;20048;-77
2023/06/08 14:45:31;;;;;;;4.70;4.30;;;;;;;;;;5050389;28;20533;-76
2023/06/08 14:47:57;;;;;;;6.00;4.20;;;;;;;;;;5050313;28;20045;-78